createdAt,value
2018-03-28T00:02:44.720Z,93.30
2018-03-28T00:05:48.053Z,92.40
2018-03-28T00:08:51.482Z,92.70
2018-03-28T00:11:54.806Z,93.10
2018-03-28T00:14:58.129Z,93.00
2018-03-28T00:18:01.455Z,92.60
2018-03-28T00:21:04.937Z,92.80
2018-03-28T00:24:08.369Z,91.90
2018-03-28T00:27:11.681Z,92.00
2018-03-28T00:30:15.155Z,92.80
2018-03-28T00:33:19.046Z,92.40
2018-03-28T00:36:25.140Z,91.70
2018-03-28T00:39:31.668Z,92.30
2018-03-28T00:42:35.005Z,92.30
2018-03-28T00:45:38.338Z,92.20
2018-03-28T00:48:41.796Z,92.50
2018-03-28T00:51:45.124Z,92.20
2018-03-28T00:54:48.483Z,92.40
2018-03-28T00:57:52.946Z,91.90
2018-03-28T01:00:57.029Z,92.60
2018-03-28T01:04:00.573Z,92.50
2018-03-28T01:07:03.972Z,92.30
2018-03-28T01:10:11.266Z,92.10
2018-03-28T01:13:14.809Z,92.60
2018-03-28T01:16:19.003Z,91.70
2018-03-28T01:19:22.455Z,91.50
2018-03-28T01:22:26.595Z,92.10
2018-03-28T01:25:30.025Z,92.00
2018-03-28T01:28:37.992Z,92.00
2018-03-28T01:31:41.679Z,91.80
2018-03-28T01:34:45.044Z,92.10
2018-03-28T01:37:48.394Z,92.30
2018-03-28T01:40:51.690Z,91.90
2018-03-28T01:43:55.803Z,92.30
2018-03-28T01:46:59.115Z,92.20
2018-03-28T01:50:02.492Z,91.70
2018-03-28T01:53:06.921Z,92.00
2018-03-28T01:56:11.040Z,92.50
2018-03-28T01:59:14.414Z,92.40
2018-03-28T02:02:17.788Z,92.60
2018-03-28T02:05:21.213Z,92.50
2018-03-28T02:08:24.679Z,92.60
2018-03-28T02:11:28.484Z,92.70
2018-03-28T02:14:32.053Z,92.80
2018-03-28T02:17:35.467Z,92.70
2018-03-28T02:20:38.836Z,92.80
2018-03-28T02:23:43.007Z,93.50
2018-03-28T02:26:47.108Z,93.30
2018-03-28T02:29:50.511Z,93.30
2018-03-28T02:32:53.889Z,93.50
2018-03-28T02:35:57.293Z,93.20
2018-03-28T02:39:01.441Z,93.00
2018-03-28T02:42:04.858Z,92.80
2018-03-28T02:45:08.289Z,93.00
2018-03-28T02:48:12.606Z,93.60
2018-03-28T02:51:16.584Z,93.40
2018-03-28T02:54:20.030Z,93.60
2018-03-28T02:57:23.647Z,93.50
2018-03-28T03:00:27.101Z,93.40
2018-03-28T03:06:50.065Z,94.00
2018-03-28T03:09:53.454Z,94.20
2018-03-28T03:12:56.829Z,93.90
2018-03-28T03:16:00.603Z,94.20
2018-03-28T03:19:03.845Z,94.40
2018-03-28T03:22:07.153Z,94.20
2018-03-28T03:25:11.061Z,93.90
2018-03-28T03:28:14.382Z,94.20
2018-03-28T03:31:17.760Z,94.10
2018-03-28T03:34:21.200Z,94.30
2018-03-28T03:37:24.613Z,94.10
2018-03-28T03:40:27.906Z,94.00
2018-03-28T03:43:32.041Z,93.70
2018-03-28T03:46:35.502Z,93.70
2018-03-28T03:49:38.912Z,93.90
2018-03-28T03:52:42.233Z,93.60
2018-03-28T03:55:45.572Z,93.90
2018-03-28T03:58:49.308Z,94.00
2018-03-28T04:01:52.766Z,93.90
2018-03-28T04:04:56.607Z,94.30
2018-03-28T04:07:59.934Z,94.60
2018-03-28T04:11:04.665Z,94.40
2018-03-28T04:14:09.780Z,94.20
2018-03-28T04:17:13.152Z,94.20
2018-03-28T04:20:16.650Z,94.40
2018-03-28T04:23:19.978Z,94.40
2018-03-28T04:26:24.084Z,94.90
2018-03-28T04:29:27.461Z,94.80
2018-03-28T04:32:30.975Z,94.50
2018-03-28T04:35:34.311Z,94.50
2018-03-28T04:38:38.394Z,94.70
2018-03-28T04:41:41.777Z,94.70
2018-03-28T04:44:45.492Z,94.50
2018-03-28T04:47:48.982Z,94.50
2018-03-28T04:50:52.798Z,94.60
2018-03-28T04:53:56.138Z,94.20
2018-03-28T04:56:59.498Z,94.60
2018-03-28T05:00:03.190Z,94.30
2018-03-28T05:03:06.692Z,93.90
2018-03-28T05:06:10.055Z,94.00
2018-03-28T05:09:13.610Z,93.80
2018-03-28T05:12:16.992Z,93.90
2018-03-28T05:15:20.640Z,94.00
2018-03-28T05:18:24.035Z,93.60
2018-03-28T05:21:29.663Z,94.10
2018-03-28T05:24:33.930Z,94.10
2018-03-28T05:27:37.416Z,94.00
2018-03-28T05:30:40.923Z,93.60
2018-03-28T05:33:45.370Z,93.80
2018-03-28T05:36:48.737Z,93.60
2018-03-28T05:39:52.321Z,94.20
2018-03-28T05:42:55.757Z,94.20
2018-03-28T05:46:00.068Z,94.30
2018-03-28T05:49:03.557Z,94.20
2018-03-28T05:52:07.101Z,94.00
2018-03-28T05:55:10.504Z,94.10
2018-03-28T05:58:14.075Z,94.10
2018-03-28T06:01:17.492Z,94.50
2018-03-28T06:04:21.741Z,94.30
2018-03-28T06:07:25.177Z,94.10
2018-03-28T06:10:29.424Z,94.50
2018-03-28T06:13:32.887Z,94.30
2018-03-28T06:16:36.331Z,94.20
2018-03-28T06:19:39.717Z,94.10
2018-03-28T06:22:43.874Z,94.20
2018-03-28T06:25:47.256Z,94.10
2018-03-28T06:28:50.674Z,94.00
2018-03-28T06:31:54.119Z,93.90
2018-03-28T06:34:58.508Z,93.50
2018-03-28T06:38:01.987Z,93.40
2018-03-28T06:41:05.491Z,93.30
2018-03-28T06:44:09.050Z,93.40
2018-03-28T06:47:13.571Z,93.40
2018-03-28T06:50:16.823Z,93.30
2018-03-28T06:53:20.461Z,93.60
2018-03-28T06:56:25.435Z,93.80
2018-03-28T06:59:28.973Z,93.70
2018-03-28T07:02:33.125Z,93.70
2018-03-28T07:05:36.503Z,93.60
2018-03-28T07:08:40.642Z,93.80
2018-03-28T07:11:44.023Z,93.80
2018-03-28T07:14:47.329Z,93.60
2018-03-28T07:17:50.940Z,93.50
2018-03-28T07:20:54.525Z,93.20
2018-03-28T07:23:57.927Z,93.50
2018-03-28T07:27:01.271Z,93.30
2018-03-28T07:30:04.735Z,93.20
2018-03-28T07:33:08.448Z,93.70
2018-03-28T07:36:11.777Z,93.30
2018-03-28T07:39:15.101Z,93.40
2018-03-28T07:42:18.428Z,93.50
2018-03-28T07:45:22.085Z,93.20
2018-03-28T07:48:25.519Z,93.10
2018-03-28T07:51:28.849Z,93.20
2018-03-28T07:54:32.231Z,93.90
2018-03-28T07:57:35.637Z,93.40
2018-03-28T08:00:39.753Z,93.60
2018-03-28T08:03:43.192Z,93.50
2018-03-28T08:06:46.518Z,93.40
2018-03-28T08:09:49.958Z,93.70
2018-03-28T08:12:53.566Z,93.80
2018-03-28T08:15:56.877Z,93.80
2018-03-28T08:19:00.236Z,93.70
2018-03-28T08:22:03.631Z,93.60
2018-03-28T08:25:06.989Z,94.10
2018-03-28T08:28:10.405Z,94.20
2018-03-28T08:31:13.748Z,94.20
2018-03-28T08:34:17.281Z,93.90
2018-03-28T08:37:20.907Z,93.40
2018-03-28T08:40:24.229Z,93.90
2018-03-28T08:43:27.622Z,94.20
2018-03-28T08:46:31.053Z,94.20
2018-03-28T08:49:35.196Z,93.70
2018-03-28T08:52:39.250Z,93.40
2018-03-28T08:55:42.772Z,93.40
2018-03-28T08:58:46.261Z,93.50
2018-03-28T09:01:50.026Z,93.90
2018-03-28T09:04:53.335Z,93.60
2018-03-28T09:07:56.707Z,94.20
2018-03-28T09:11:00.813Z,93.50
2018-03-28T09:14:05.094Z,93.20
2018-03-28T09:17:08.480Z,93.10
2018-03-28T09:20:12.039Z,93.30
2018-03-28T09:23:16.407Z,93.70
2018-03-28T09:26:19.828Z,93.70
2018-03-28T09:29:23.522Z,93.30
2018-03-28T09:32:27.665Z,93.50
2018-03-28T09:35:31.861Z,93.50
2018-03-28T09:38:35.237Z,93.40
2018-03-28T09:41:39.762Z,93.50
2018-03-28T09:44:43.092Z,93.00
2018-03-28T09:47:46.559Z,93.40
2018-03-28T09:50:49.854Z,93.20
2018-03-28T09:53:53.352Z,93.60
2018-03-28T09:56:57.780Z,93.60
2018-03-28T10:00:01.193Z,93.50
2018-03-28T10:03:10.220Z,93.20
2018-03-28T10:06:13.562Z,93.50
2018-03-28T10:09:16.977Z,93.60
2018-03-28T10:12:21.311Z,93.80
2018-03-28T10:15:25.368Z,93.70
2018-03-28T10:18:30.125Z,93.60
2018-03-28T10:21:33.417Z,93.50
2018-03-28T10:24:36.781Z,93.80
2018-03-28T10:27:40.070Z,93.50
2018-03-28T10:30:43.473Z,94.10
2018-03-28T10:33:46.903Z,93.70
2018-03-28T10:36:50.340Z,93.30
2018-03-28T10:39:53.965Z,93.40
2018-03-28T10:42:57.268Z,93.00
2018-03-28T10:46:00.980Z,93.00
2018-03-28T10:49:04.277Z,92.70
2018-03-28T10:52:07.627Z,92.30
2018-03-28T10:55:10.996Z,92.30
2018-03-28T10:58:14.471Z,92.60
2018-03-28T11:01:17.875Z,92.50
2018-03-28T11:04:21.302Z,92.80
2018-03-28T11:07:25.799Z,92.60
2018-03-28T11:10:29.203Z,92.40
2018-03-28T11:13:33.180Z,91.80
2018-03-28T11:16:36.559Z,90.70
2018-03-28T11:19:39.937Z,91.60
2018-03-28T11:22:43.273Z,89.50
2018-03-28T11:25:46.702Z,89.30
2018-03-28T11:28:50.445Z,90.50
2018-03-28T11:31:53.745Z,89.70
2018-03-28T11:34:57.249Z,90.70
2018-03-28T11:38:00.648Z,87.90
2018-03-28T11:41:04.060Z,87.70
2018-03-28T11:44:08.148Z,88.80
2018-03-28T11:47:11.481Z,88.60
2018-03-28T11:50:14.807Z,89.30
2018-03-28T11:53:18.176Z,87.50
2018-03-28T11:56:21.510Z,87.80
2018-03-28T11:59:24.793Z,87.80
2018-03-28T12:02:28.197Z,88.70
2018-03-28T12:05:31.651Z,85.80
2018-03-28T12:08:34.970Z,87.10
2018-03-28T12:11:38.402Z,88.00
2018-03-28T12:14:41.810Z,89.20
2018-03-28T12:17:45.091Z,90.40
2018-03-28T12:20:48.443Z,90.30
2018-03-28T12:23:52.076Z,91.90
2018-03-28T12:26:55.415Z,91.30
2018-03-28T12:29:59.250Z,91.30
2018-03-28T12:33:02.654Z,91.50
2018-03-28T12:36:05.978Z,91.20
2018-03-28T12:39:09.390Z,91.80
2018-03-28T12:42:12.712Z,91.50
2018-03-28T12:45:16.024Z,90.30
2018-03-28T12:48:19.349Z,90.40
2018-03-28T12:51:22.744Z,90.90
2018-03-28T12:54:26.903Z,90.40
2018-03-28T12:57:30.511Z,90.40
2018-03-28T13:00:33.876Z,90.60
2018-03-28T13:03:37.921Z,90.70
2018-03-28T13:06:41.269Z,90.70
2018-03-28T13:09:44.565Z,90.20
2018-03-28T13:12:47.866Z,91.00
2018-03-28T13:15:51.446Z,91.50
2018-03-28T13:18:55.483Z,92.20
2018-03-28T13:21:58.788Z,92.10
2018-03-28T13:25:02.878Z,92.40
2018-03-28T13:28:06.336Z,92.40
2018-03-28T13:31:09.646Z,93.20
2018-03-28T13:34:13.036Z,93.70
2018-03-28T13:37:16.502Z,93.00
2018-03-28T13:40:19.840Z,93.30
2018-03-28T13:43:23.955Z,93.00
2018-03-28T13:46:27.266Z,92.90
2018-03-28T13:49:30.588Z,93.10
2018-03-28T13:52:33.879Z,92.10
2018-03-28T13:55:37.192Z,93.10
2018-03-28T13:58:40.616Z,93.20
2018-03-28T14:01:43.996Z,93.20
2018-03-28T14:04:47.304Z,92.80
2018-03-28T14:07:50.584Z,93.00
2018-03-28T14:10:53.904Z,92.50
2018-03-28T14:13:57.223Z,92.30
2018-03-28T14:17:00.584Z,91.90
2018-03-28T14:20:03.903Z,91.40
2018-03-28T14:23:07.361Z,92.00
2018-03-28T14:26:10.710Z,91.60
2018-03-28T14:29:14.007Z,92.20
2018-03-28T14:32:17.425Z,91.10
2018-03-28T14:35:21.564Z,90.20
2018-03-28T14:38:25.007Z,91.10
2018-03-28T14:41:29.106Z,90.90
2018-03-28T14:44:32.549Z,90.80
2018-03-28T14:47:35.828Z,90.60
2018-03-28T14:50:39.089Z,90.80
2018-03-28T14:53:43.189Z,91.00
2018-03-28T14:56:46.833Z,91.50
2018-03-28T14:59:50.170Z,91.50
2018-03-28T15:02:53.608Z,90.40
2018-03-28T15:05:57.717Z,90.90
2018-03-28T15:09:01.062Z,90.80
2018-03-28T15:12:05.099Z,91.10
2018-03-28T15:15:08.526Z,91.10
2018-03-28T15:18:11.817Z,91.50
2018-03-28T15:21:15.084Z,90.90
2018-03-28T15:24:18.392Z,91.60
2018-03-28T15:27:21.698Z,91.50
2018-03-28T15:30:26.650Z,91.60
2018-03-28T15:33:30.872Z,90.90
2018-03-28T15:36:35.222Z,91.00
2018-03-28T15:39:38.551Z,90.90
2018-03-28T15:42:41.855Z,90.10
2018-03-28T15:45:45.159Z,91.10
2018-03-28T15:48:48.481Z,90.40
2018-03-28T15:51:51.810Z,89.30
2018-03-28T15:54:55.104Z,90.10
2018-03-28T15:57:58.389Z,90.10
2018-03-28T16:01:01.763Z,90.70
2018-03-28T16:04:06.152Z,92.50
2018-03-28T16:07:10.213Z,90.90
2018-03-28T16:10:13.668Z,90.80
2018-03-28T16:13:16.961Z,91.50
2018-03-28T16:16:20.306Z,90.90
2018-03-28T16:19:23.685Z,90.90
2018-03-28T16:22:27.097Z,91.10
2018-03-28T16:25:30.606Z,91.60
2018-03-28T16:28:33.949Z,92.50
2018-03-28T16:31:37.829Z,92.40
2018-03-28T16:34:41.899Z,92.50
2018-03-28T16:37:45.184Z,92.40
2018-03-28T16:40:48.580Z,91.80
2018-03-28T16:43:51.962Z,92.20
2018-03-28T16:46:56.258Z,92.20
2018-03-28T16:49:59.612Z,91.40
2018-03-28T16:53:03.052Z,92.20
2018-03-28T16:56:06.421Z,92.20
2018-03-28T16:59:09.788Z,93.20
2018-03-28T17:02:13.191Z,93.50
2018-03-28T17:05:16.706Z,93.50
2018-03-28T17:08:20.239Z,93.60
2018-03-28T17:11:23.647Z,94.10
2018-03-28T17:14:26.959Z,94.50
2018-03-28T17:17:30.611Z,93.80
2018-03-28T17:20:34.000Z,93.60
2018-03-28T17:23:37.375Z,94.30
2018-03-28T17:26:40.725Z,94.30
2018-03-28T17:29:44.131Z,94.90
2018-03-28T17:32:47.541Z,94.90
2018-03-28T17:35:50.978Z,94.80
2018-03-28T17:38:54.275Z,94.70
2018-03-28T17:41:57.657Z,94.80
2018-03-28T17:45:01.039Z,94.70
2018-03-28T17:48:05.237Z,95.00
2018-03-28T17:51:08.614Z,94.90
2018-03-28T17:54:15.739Z,94.40
2018-03-28T17:57:19.110Z,94.70
2018-03-28T18:00:22.452Z,94.80
2018-03-28T18:03:25.858Z,94.40
2018-03-28T18:06:29.166Z,94.70
2018-03-28T18:09:32.490Z,94.30
2018-03-28T18:12:36.148Z,94.40
2018-03-28T18:15:40.350Z,94.30
2018-03-28T18:18:44.444Z,94.80
2018-03-28T18:21:48.601Z,94.70
2018-03-28T18:24:52.013Z,94.60
2018-03-28T18:27:55.421Z,94.80
2018-03-28T18:30:58.756Z,95.20
2018-03-28T18:34:02.307Z,95.10
2018-03-28T18:37:06.078Z,94.20
2018-03-28T18:40:09.430Z,94.30
2018-03-28T18:43:12.915Z,94.60
2018-03-28T18:46:16.289Z,94.00
2018-03-28T18:49:20.359Z,94.90
2018-03-28T18:52:23.618Z,94.90
2018-03-28T18:55:27.746Z,94.80
2018-03-28T18:58:31.542Z,94.70
2018-03-28T19:01:34.901Z,94.80
2018-03-28T19:04:38.717Z,94.60
2018-03-28T19:07:42.788Z,94.30
2018-03-28T19:10:46.255Z,94.30
2018-03-28T19:13:49.591Z,94.70
2018-03-28T19:16:54.155Z,95.20
2018-03-28T19:19:57.486Z,95.10
2018-03-28T19:23:01.047Z,95.10
2018-03-28T19:26:04.326Z,95.10
2018-03-28T19:29:07.744Z,95.20
2018-03-28T19:32:11.139Z,95.10
2018-03-28T19:35:14.504Z,95.20
2018-03-28T19:38:17.890Z,95.00
2018-03-28T19:41:21.221Z,95.30
2018-03-28T19:44:25.395Z,95.30
2018-03-28T19:47:28.764Z,95.60
2018-03-28T19:50:32.154Z,95.40
2018-03-28T19:53:35.467Z,95.90
2018-03-28T19:56:39.536Z,95.70
2018-03-28T19:59:42.884Z,95.50
2018-03-28T20:02:47.008Z,95.70
2018-03-28T20:05:51.128Z,95.60
2018-03-28T20:08:55.278Z,95.70
2018-03-28T20:11:58.805Z,95.60
2018-03-28T20:15:02.329Z,95.70
2018-03-28T20:18:05.732Z,95.70
2018-03-28T20:21:09.246Z,95.80
2018-03-28T20:24:12.669Z,95.70
2018-03-28T20:27:16.266Z,96.00
2018-03-28T20:30:19.632Z,95.90
2018-03-28T20:33:23.452Z,96.00
2018-03-28T20:36:26.790Z,95.90
2018-03-28T20:39:30.797Z,96.10
2018-03-28T20:42:34.050Z,96.40
2018-03-28T20:45:37.438Z,96.30
2018-03-28T20:48:41.492Z,96.10
2018-03-28T20:51:45.175Z,96.00
2018-03-28T20:54:48.407Z,96.10
2018-03-28T20:57:51.786Z,96.10
2018-03-28T21:00:55.833Z,96.00
2018-03-28T21:03:59.487Z,96.00
2018-03-28T21:07:03.555Z,96.10
2018-03-28T21:10:06.839Z,96.00
2018-03-28T21:13:10.115Z,95.90
2018-03-28T21:16:14.340Z,96.10
2018-03-28T21:19:18.508Z,96.10
2018-03-28T21:22:21.850Z,96.00
2018-03-28T21:25:25.151Z,96.00
2018-03-28T21:28:28.432Z,96.20
2018-03-28T21:31:31.982Z,96.20
2018-03-28T21:34:35.302Z,96.20
2018-03-28T21:37:38.604Z,96.20
2018-03-28T21:40:42.686Z,96.10
2018-03-28T21:43:46.016Z,96.00
2018-03-28T21:46:49.268Z,95.90
2018-03-28T21:49:52.637Z,96.00
2018-03-28T21:52:55.891Z,96.00
2018-03-28T21:55:59.188Z,95.50
2018-03-28T21:59:02.479Z,95.50
2018-03-28T22:02:05.842Z,95.30
2018-03-28T22:05:09.870Z,94.90
2018-03-28T22:08:13.186Z,94.90
2018-03-28T22:11:16.425Z,95.00
2018-03-28T22:14:20.851Z,94.80
2018-03-28T22:17:24.849Z,94.60
2018-03-28T22:20:28.439Z,94.60
2018-03-28T22:23:31.803Z,94.60
2018-03-28T22:26:35.122Z,94.70
2018-03-28T22:29:38.376Z,94.60
2018-03-28T22:32:42.434Z,94.60
2018-03-28T22:35:45.728Z,94.60
2018-03-28T22:38:49.019Z,94.50
2018-03-28T22:41:52.318Z,94.60
2018-03-28T22:44:55.649Z,94.50
2018-03-28T22:47:59.359Z,94.10
2018-03-28T22:51:02.617Z,93.90
2018-03-28T22:54:06.372Z,93.80
2018-03-28T22:57:10.404Z,92.50
2018-03-28T23:00:13.687Z,92.50
2018-03-28T23:03:17.736Z,92.80
2018-03-28T23:06:21.099Z,92.70
2018-03-28T23:09:24.331Z,92.20
2018-03-28T23:12:27.790Z,91.80
2018-03-28T23:15:31.241Z,91.70
2018-03-28T23:18:34.501Z,91.40
2018-03-28T23:21:37.768Z,91.20
2018-03-28T23:24:41.845Z,90.30
2018-03-28T23:27:45.409Z,90.30
2018-03-28T23:30:49.441Z,89.10
2018-03-28T23:33:53.192Z,89.10
2018-03-28T23:36:56.449Z,89.40
2018-03-28T23:39:59.745Z,90.60
2018-03-28T23:43:03.012Z,90.10
2018-03-28T23:46:07.530Z,88.90
2018-03-28T23:49:10.925Z,88.80
2018-03-28T23:52:14.222Z,89.40
2018-03-28T23:55:18.247Z,90.00
2018-03-28T23:58:21.575Z,89.80
